Addison, Illinois
Current Conditions -  °F | °C
As of 10:51 PM on Friday 31 Oct 2014 (Local Time) from KORD Reporting Station
Light Snow Light Snow  
Wind Chill: 24°   Ceiling: 3800
Heat Index: 34°   Visibility: 9mi
Dew Point: 24°   Wind: 16mph
Humidity: 67%   Direction: 350°N
Pressure: 30.34"   Gusts: NA
Location:  41.93°N, 87.99°W
Report Text: KORD 010351Z 35014KT 9SM -SN BKN038 OVC048 01/M04 A3034 RMK AO2 PK WND 36027/0315 SLP280 P0001 T00111044
Loading
Personal Weather Stations






























Interactive Weather Map
Tropical Storm Tracking
New forecast layout! Learn more

10-Day Weather Forecast

Advertisements
Track Severe Weather on mobile